Latest Weather Observations for Perisher Valley

IDN60901

Issued at 5:21 am EST Friday 18 August 2017 (issued every 10 minutes, with the page automatically refreshed every 10 minutes)

About weather observations | Map of Canberra area stations | Latest observations for Canberra area | Other Formats
Station Details ID: 071075 Name: PERISHER VALLEY AWS Lat: -36.41 Lon: 148.41 Height: 1738.0 m
Data from the previous 72 hours. | See also: Recent months at Perisher Valley
Date/Time
EST
Temp
°C
App
Temp
°C
Dew
Point
°C
Rel
Hum
%
Delta-T
°C
Wind Press
QNH
hPa
Press
MSL
hPa
Rain since
9am
mm
Dir  Spd
km/h
Gust
km/h
Spd
kts
Gust
kts
18/05:03am -3.8 -11.7 -4.5 95 0.1 W 28 61 15 33 - - 40.0
18/05:00am -3.8 -10.9 -4.5 95 0.1 W 24 48 13 26 - - 40.0
18/04:30am -3.6 -12.2 -4.3 95 0.1 W 32 56 17 30 - - 40.0
18/04:00am -3.3 -11.9 -3.8 96 0.0 W 32 57 17 31 - - 39.8
18/03:46am -3.2 -10.2 -3.7 96 0.0 W 24 52 13 28 - - 39.2
18/03:30am -3.3 -9.4 -3.8 96 0.0 WSW 19 37 10 20 - - 38.2
18/03:00am -3.5 -12.7 -4.2 95 0.1 WNW 35 76 19 41 - - 37.8
18/02:59am -3.5 -12.3 -4.2 95 0.1 WNW 33 76 18 41 - - 37.8
18/02:30am -3.1 -11.6 -3.6 96 0.0 W 32 54 17 29 - - 37.2
18/02:00am -3.1 -12.2 -3.6 96 0.0 WNW 35 65 19 35 - - 36.8
18/01:30am -3.1 -11.8 -3.6 96 0.0 W 33 63 18 34 - - 36.4
18/01:00am -3.1 -12.2 -3.6 96 0.0 WNW 35 61 19 33 - - 36.0
18/12:30am -2.8 -10.5 -3.3 96 0.0 W 28 72 15 39 - - 35.4
18/12:00am -2.4 -10.8 -2.8 97 0.0 W 32 52 17 28 - - 34.8
 
Date/Time
EST
Temp
°C
App
Temp
°C
Dew
Point
°C
Rel
Hum
%
Delta-T
°C
Wind Press
QNH
hPa
Press
MSL
hPa
Rain since
9am
mm
Dir  Spd
km/h
Gust
km/h
Spd
kts
Gust
kts
17/11:30pm -2.6 -11.6 -3.1 96 0.1 W 35 59 19 32 - - 34.2
17/11:12pm -2.6 -10.3 -3.1 96 0.1 WNW 28 54 15 29 - - 34.0
17/11:00pm -2.5 -9.1 -3.0 96 0.1 W 22 50 12 27 - - 33.6
17/10:30pm -2.0 -10.0 -2.4 97 0.1 WNW 30 50 16 27 - - 32.8
17/10:27pm -2.0 -9.6 -2.4 97 0.1 WNW 28 50 15 27 - - 32.8
17/10:00pm -1.9 -8.0 -2.3 97 0.1 WNW 20 39 11 21 - - 31.8
17/09:33pm -1.8 -9.4 -2.2 97 0.1 WNW 28 50 15 27 - - 31.0
17/09:30pm -1.8 -8.6 -2.2 97 0.1 W 24 50 13 27 - - 30.8
17/09:07pm -1.8 -9.8 -2.2 97 0.1 WNW 30 50 16 27 - - 30.2
17/09:00pm -1.8 -10.2 -2.2 97 0.1 WNW 32 50 17 27 - - 30.2
17/08:47pm -1.7 -9.3 -2.1 97 0.1 WNW 28 48 15 26 - - 29.8
17/08:30pm -1.6 -8.8 -2.0 97 0.1 WNW 26 50 14 27 - - 29.2
17/08:07pm -1.5 -9.1 -1.9 97 0.1 W 28 54 15 29 - - 28.4
17/08:00pm -1.5 -8.7 -1.9 97 0.1 W 26 54 14 29 - - 28.2
17/07:34pm -1.3 -8.8 -1.6 98 0.0 W 28 65 15 35 - - 27.0
17/07:30pm -1.1 -7.8 -1.4 98 0.1 W 24 52 13 28 - - 26.8
17/07:00pm -0.9 -7.2 -1.2 98 0.1 W 22 44 12 24 - - 23.8
17/06:31pm -0.9 -9.7 -1.3 97 0.1 WNW 35 61 19 33 - - 22.0
17/06:30pm -0.9 -9.7 -1.3 97 0.1 WNW 35 61 19 33 - - 22.0
17/06:03pm -1.1 -8.3 -1.7 96 0.2 W 26 82 14 44 - - 21.2
17/06:00pm -0.9 -6.9 -1.3 97 0.1 W 20 72 11 39 - - 21.0
17/05:30pm -1.0 -8.9 -1.4 97 0.1 WNW 30 61 16 33 - - 19.4
17/05:04pm -1.0 -8.5 -1.4 97 0.1 WNW 28 54 15 29 - - 18.8
17/05:00pm -1.1 -7.9 -1.5 97 0.1 W 24 48 13 26 - - 18.8
17/04:48pm -1.0 -8.5 -1.4 97 0.1 WNW 28 52 15 28 - - 18.8
17/04:30pm -0.7 -7.8 -1.0 98 0.1 W 26 50 14 27 - - 18.8
17/04:07pm -0.8 -8.3 -1.2 97 0.1 W 28 69 15 37 - - 18.4
17/04:00pm -0.7 -6.6 -1.1 97 0.1 W 20 69 11 37 - - 18.0
17/03:30pm -0.8 -9.6 -1.4 96 0.2 WNW 35 61 19 33 - - 15.8
17/03:00pm -0.5 -10.4 -0.8 98 0.1 WNW 41 72 22 39 - - 13.4
17/02:30pm -0.5 -8.9 -0.9 97 0.1 WNW 33 72 18 39 - - 10.8
17/02:29pm -0.4 -8.8 -0.8 97 0.1 WNW 33 72 18 39 - - 10.8
17/02:00pm -0.2 -8.4 -1.2 93 0.4 W 32 52 17 28 - - 9.0
17/01:49pm -0.2 -7.6 -1.0 94 0.3 W 28 52 15 28 - - 7.8
17/01:30pm -0.5 -5.9 -1.2 95 0.2 W 17 44 9 24 - - 6.2
17/01:00pm -0.7 -7.4 -1.1 97 0.1 WNW 24 57 13 31 - - 5.2
17/12:50pm -0.7 -8.2 -1.3 96 0.2 W 28 67 15 36 - - 5.2
17/12:46pm -0.6 -7.3 -1.2 96 0.2 W 24 67 13 36 - - 5.2
17/12:39pm -0.6 -6.4 -1.2 96 0.2 W 19 46 10 25 - - 5.2
17/12:30pm -0.5 -6.2 -1.1 96 0.2 W 19 52 10 28 - - 5.2
17/12:00pm -0.5 -4.8 -1.5 93 0.4 W 11 26 6 14 - - 3.0
17/11:30am -0.8 -4.7 -1.2 97 0.1 W 9 28 5 15 - - 0.6
17/11:00am -1.2 -5.9 -2.0 94 0.2 NNW 13 35 7 19 - - 0.2
17/10:30am -1.5 -5.6 -2.9 90 0.4 WNW 9 30 5 16 - - 0.2
17/10:00am -1.2 -7.1 -2.5 91 0.4 W 19 57 10 31 - - 0.2
17/09:30am -0.9 -6.9 -1.6 95 0.2 W 20 52 11 28 - - 0.0
17/09:00am -0.8 -9.1 -1.4 96 0.2 W 32 63 17 34 - - 52.0
17/08:30am -0.7 -8.9 -1.1 97 0.1 W 32 80 17 43 - - 51.8
17/08:06am -0.5 -6.8 -0.9 97 0.1 W 22 69 12 37 - - 50.6
17/08:00am -0.5 -7.2 -0.9 97 0.1 W 24 56 13 30 - - 50.0
17/07:50am -0.5 -8.0 -1.1 96 0.2 W 28 61 15 33 - - 49.2
17/07:30am -0.7 -7.5 -1.7 93 0.4 W 24 46 13 25 - - 47.0
17/07:00am -0.6 -6.4 -1.4 94 0.3 W 19 52 10 28 - - 44.8
17/06:30am -0.6 -5.6 -1.3 95 0.2 W 15 41 8 22 - - 42.0
17/06:00am -0.6 -7.3 -1.3 95 0.2 W 24 48 13 26 - - 39.6
17/05:30am -0.7 -7.8 -1.4 95 0.2 W 26 50 14 27 - - 37.6
17/05:17am -0.5 -8.0 -1.2 95 0.2 W 28 57 15 31 - - 36.8
17/05:00am -0.4 -5.8 -1.0 96 0.2 W 17 46 9 25 - - 35.6
17/04:30am -0.6 -6.6 -1.3 95 0.2 W 20 46 11 25 - - 34.2
17/04:00am -0.4 -6.7 -1.0 96 0.2 W 22 57 12 31 - - 32.8
17/03:30am -0.6 -7.3 -1.3 95 0.2 W 24 57 13 31 - - 31.2
17/03:21am -0.6 -8.1 -1.4 94 0.3 W 28 57 15 31 - - 30.8
17/03:00am -0.7 -7.4 -1.3 96 0.2 W 24 54 13 29 - - 30.8
17/02:36am -0.5 -8.0 -1.2 95 0.2 W 28 48 15 26 - - 30.2
17/02:30am -0.7 -7.0 -1.3 96 0.2 W 22 56 12 30 - - 30.0
17/02:00am -0.5 -8.7 -0.9 97 0.1 W 32 69 17 37 - - 29.4
17/01:30am -0.3 -9.1 -0.9 96 0.2 WNW 35 59 19 32 - - 28.4
17/01:00am -0.3 -7.7 -1.0 95 0.3 W 28 54 15 29 - - 26.2
17/12:50am -0.3 -7.8 -1.1 94 0.3 W 28 59 15 32 - - 25.4
17/12:30am -0.3 -6.0 -1.0 95 0.3 W 19 54 10 29 - - 24.4
17/12:19am -0.3 -7.7 -1.0 95 0.3 W 28 61 15 33 - - 24.2
17/12:00am -0.4 -6.1 -1.0 96 0.2 W 19 50 10 27 - - 23.2
 
Date/Time
EST
Temp
°C
App
Temp
°C
Dew
Point
°C
Rel
Hum
%
Delta-T
°C
Wind Press
QNH
hPa
Press
MSL
hPa
Rain since
9am
mm
Dir  Spd
km/h
Gust
km/h
Spd
kts
Gust
kts
16/11:30pm -0.2 -8.0 -0.5 98 0.1 W 30 63 16 34 - - 23.2
16/11:00pm -0.3 -8.1 -1.1 94 0.3 W 30 54 16 29 - - 22.6
16/10:32pm -0.1 -7.6 -1.2 92 0.4 WNW 28 54 15 29 - - 20.4
16/10:30pm -0.1 -7.2 -1.4 91 0.5 W 26 52 14 28 - - 20.4
16/10:09pm -0.1 -7.6 -1.1 93 0.4 W 28 57 15 31 - - 19.6
16/10:00pm -0.2 -7.3 -1.0 94 0.3 W 26 59 14 32 - - 18.8
16/09:54pm -0.1 -7.9 -0.9 94 0.3 W 30 59 16 32 - - 18.4
16/09:30pm 0.0 -6.3 -0.8 94 0.3 W 22 72 12 39 - - 17.2
16/09:00pm 0.3 -5.6 -0.8 92 0.5 W 20 57 11 31 - - 15.2
16/08:40pm 0.1 -7.3 -0.5 96 0.2 W 28 57 15 31 - - 14.2
16/08:30pm -0.2 -7.3 -0.9 95 0.3 W 26 57 14 31 - - 13.8
16/08:02pm -0.3 -7.7 -0.9 96 0.2 W 28 67 15 36 - - 13.6
16/08:00pm -0.3 -6.6 -1.0 95 0.3 W 22 48 12 26 - - 13.6
16/07:40pm -0.3 -6.1 -1.6 91 0.5 W 19 61 10 33 - - 13.6
16/07:30pm -0.4 -5.4 -1.1 95 0.3 W 15 43 8 23 - - 13.6
16/07:00pm -0.5 -7.2 -0.9 97 0.1 WNW 24 48 13 26 - - 13.6
16/06:31pm -0.5 -8.0 -1.3 94 0.3 W 28 63 15 34 - - 13.6
16/06:30pm -0.5 -7.6 -1.2 95 0.2 W 26 63 14 34 - - 13.6
16/06:06pm -0.5 -8.0 -1.2 95 0.2 W 28 50 15 27 - - 13.4
16/06:00pm -0.5 -6.9 -1.5 93 0.4 W 22 43 12 23 - - 13.2
16/05:30pm -0.2 -7.6 -0.9 95 0.3 W 28 54 15 29 - - 11.6
16/05:00pm -0.1 -8.5 -0.8 95 0.3 W 33 63 18 34 - - 11.4
16/04:30pm -0.5 -9.3 -1.3 94 0.3 W 35 63 19 34 - - 10.4
16/04:02pm -0.3 -7.8 -1.3 93 0.4 W 28 54 15 29 - - 9.2
16/04:00pm -0.3 -6.6 -1.3 93 0.4 WNW 22 52 12 28 - - 9.2
16/03:30pm 0.1 -8.3 -1.0 92 0.4 W 33 76 18 41 - - 7.6
16/03:00pm -0.1 -8.6 -1.5 90 0.5 WNW 33 65 18 35 - - 6.6
16/02:33pm -0.1 -7.7 -2.0 87 0.7 W 28 56 15 30 - - 6.2
16/02:30pm 0.0 -7.1 -1.4 90 0.6 W 26 56 14 30 - - 6.2
16/02:00pm -0.1 -6.9 -1.7 89 0.6 W 24 48 13 26 - - 5.0
16/01:42pm -0.1 -7.8 -3.1 80 1.1 W 28 61 15 33 - - 4.8
16/01:30pm 0.2 -5.6 -1.4 89 0.6 W 19 43 10 23 - - 4.2
16/01:00pm 0.0 -8.0 -2.2 85 0.8 W 30 57 16 31 - - 3.8
16/12:31pm -0.2 -7.8 -2.3 86 0.8 W 28 56 15 30 - - 3.6
16/12:30pm -0.1 -7.3 -2.2 86 0.8 W 26 56 14 30 - - 3.6
16/12:00pm -0.3 -7.8 -1.4 92 0.4 WNW 28 59 15 32 - - 3.6
16/11:34am -0.2 -7.4 -2.1 87 0.7 WNW 26 65 14 35 - - 3.6
16/11:30am -0.1 -5.9 -1.7 89 0.6 W 19 39 10 21 - - 3.6
16/11:00am -0.2 -9.1 -1.9 88 0.6 WNW 35 69 19 37 - - 3.6
16/10:30am 0.3 -8.1 -0.7 93 0.4 WNW 33 67 18 36 - - 3.2
16/10:00am 0.2 -9.7 -0.6 94 0.3 W 41 80 22 43 - - 2.2
16/09:30am -0.2 -10.1 -1.0 94 0.3 WNW 41 74 22 40 - - 1.4
16/09:00am -0.4 -9.2 -1.0 96 0.2 WNW 35 65 19 35 - - 145.6
16/08:30am -0.2 -10.2 -1.5 91 0.5 WNW 41 78 22 42 - - 145.6
16/08:00am 0.2 -9.3 -0.9 92 0.4 W 39 69 21 37 - - 145.6
16/07:30am 0.5 -9.7 -0.4 94 0.4 WNW 43 69 23 37 - - 143.4
16/07:00am 0.8 -7.4 0.1 95 0.3 W 33 65 18 35 - - 143.0
16/06:30am 1.8 -7.5 0.9 94 0.4 WNW 39 70 21 38 - - 140.0
16/06:00am 1.8 -7.1 0.8 93 0.4 W 37 63 20 34 - - 135.2
16/05:30am 1.7 -6.3 0.7 93 0.4 W 32 65 17 35 - - 129.8
16/05:00am 1.7 -7.6 0.5 92 0.5 WNW 39 72 21 39 - - 124.2
16/04:30am 2.0 -7.3 0.8 92 0.5 W 39 65 21 35 - - 118.8
16/04:08am 2.2 -5.7 1.2 93 0.4 WNW 32 70 17 38 - - 114.4
16/04:00am 2.5 -5.0 1.3 92 0.5 WNW 30 48 16 26 - - 112.4
16/03:30am 2.7 -6.1 1.4 91 0.6 WNW 37 63 20 34 - - 105.6
16/03:00am 2.8 -5.0 1.8 93 0.4 WNW 32 61 17 33 - - 100.0
16/02:57am 2.8 -3.9 1.6 92 0.5 WNW 26 61 14 33 - - 99.6
16/02:30am 2.6 -2.8 1.3 91 0.6 W 19 41 10 22 - - 95.8
16/02:00am 3.3 -4.4 2.1 92 0.5 WNW 32 52 17 28 - - 92.0
16/01:34am 4.0 -2.9 2.8 92 0.5 WNW 28 57 15 31 - - 88.6
16/01:30am 4.0 -2.5 2.8 92 0.5 WNW 26 57 14 31 - - 88.0
16/01:01am 4.4 -2.3 3.5 94 0.4 W 28 56 15 30 - - 83.6
16/01:00am 4.5 -1.8 3.6 94 0.4 W 26 56 14 30 - - 83.4
16/12:36am 4.6 -2.1 3.6 93 0.5 W 28 59 15 32 - - 78.6
16/12:30am 4.7 -0.8 4.0 95 0.3 W 22 63 12 34 - - 77.4
16/12:23am 4.6 -2.1 3.7 94 0.4 WNW 28 57 15 31 - - 76.4
16/12:00am 4.8 -0.7 3.9 94 0.4 W 22 65 12 35 - - 72.6
 
Date/Time
EST
Temp
°C
App
Temp
°C
Dew
Point
°C
Rel
Hum
%
Delta-T
°C
Wind Press
QNH
hPa
Press
MSL
hPa
Rain since
9am
mm
Dir  Spd
km/h
Gust
km/h
Spd
kts
Gust
kts
15/11:30pm 4.8 -2.6 4.2 96 0.3 W 32 63 17 34 - - 67.0
15/11:00pm 4.8 -3.2 3.8 93 0.5 WNW 35 76 19 41 - - 60.6
15/10:30pm 4.8 -2.6 4.2 96 0.3 W 32 61 17 33 - - 54.4
15/10:00pm 5.0 -4.1 3.8 92 0.6 W 41 82 22 44 - - 48.6
15/09:53pm 5.2 -1.8 4.3 94 0.4 WNW 30 82 16 44 - - 47.6
15/09:38pm 5.2 -0.6 4.2 93 0.5 W 24 74 13 40 - - 45.0
15/09:30pm 5.4 -0.1 4.2 92 0.6 W 22 54 12 29 - - 44.0
15/09:00pm 5.2 0.3 4.3 94 0.4 W 19 43 10 23 - - 38.8
15/08:30pm 5.2 0.8 4.5 95 0.3 W 17 57 9 31 - - 36.0
15/08:00pm 5.4 0.5 4.2 92 0.6 WNW 19 48 10 26 - - 34.4
15/07:30pm 5.4 1.7 4.4 93 0.5 W 13 41 7 22 - - 33.2
15/07:00pm 5.5 0.6 4.3 92 0.6 W 19 43 10 23 - - 30.2
15/06:40pm 5.5 -1.0 4.5 93 0.5 W 28 54 15 29 - - 27.8
15/06:30pm 5.5 0.7 4.5 93 0.5 W 19 46 10 25 - - 27.2
15/06:00pm 5.3 0.2 4.1 92 0.6 W 20 50 11 27 - - 24.8
15/05:30pm 5.3 0.8 4.4 94 0.4 W 17 43 9 23 - - 23.2
15/05:00pm 5.3 -0.5 4.4 94 0.4 W 24 59 13 32 - - 21.8
15/04:57pm 5.3 -1.2 4.6 95 0.3 W 28 59 15 32 - - 21.6
15/04:30pm 5.2 0.1 4.3 94 0.4 W 20 54 11 29 - - 19.6
15/04:00pm 5.1 1.8 4.7 97 0.2 WSW 11 33 6 18 - - 17.2
15/03:30pm 4.8 1.1 4.2 96 0.3 WSW 13 28 7 15 - - 15.6
15/03:00pm 4.5 -0.4 4.1 97 0.2 W 19 41 10 22 - - 15.0
15/02:30pm 4.2 -0.8 3.8 97 0.2 W 19 32 10 17 - - 13.2
15/02:00pm 4.4 -1.5 4.1 98 0.1 W 24 44 13 24 - - 11.6
15/01:30pm 4.2 0.1 4.1 99 0.0 W 15 35 8 19 - - 9.4
15/01:00pm 4.1 1.4 3.7 97 0.2 WNW 7 20 4 11 - - 8.8
15/12:30pm 4.4 0.8 3.2 92 0.6 W 11 30 6 16 - - 8.4
15/12:00pm 4.7 0.8 3.2 90 0.7 WNW 13 35 7 19 - - 7.8
15/11:30am 5.0 0.4 3.8 92 0.6 W 17 43 9 23 - - 7.6
15/11:07am 5.1 -1.5 4.4 95 0.3 W 28 74 15 40 - - 7.6
15/11:00am 4.9 -0.5 4.3 96 0.3 W 22 61 12 33 - - 7.6
15/10:30am 4.8 0.9 3.6 92 0.6 W 13 35 7 19 - - 6.6
15/10:00am 4.2 -0.1 3.3 94 0.4 W 15 37 8 20 - - 3.6
15/09:30am 3.9 -0.1 2.9 93 0.5 W 13 33 7 18 - - 1.6
15/09:00am 3.4 -2.0 2.5 94 0.4 W 20 43 11 23 - - 3.2
15/08:30am 3.1 -2.7 2.1 93 0.4 W 22 43 12 23 - - 2.2
15/08:00am 3.1 -5.2 2.2 94 0.4 W 35 56 19 30 - - 0.8
15/07:30am 3.1 -4.8 1.0 86 0.9 W 32 52 17 28 - - 0.0
15/07:00am 3.7 -4.3 0.4 79 1.4 W 32 54 17 29 - - 0.0
15/06:32am 3.4 -3.9 -0.2 77 1.5 W 28 48 15 26 - - 0.0
15/06:30am 3.4 -3.9 -0.2 77 1.5 W 28 44 15 24 - - 0.0
15/06:00am 3.2 -4.5 -0.3 78 1.5 WNW 30 50 16 27 - - 0.0
15/05:57am 3.2 -4.9 -0.3 78 1.5 W 32 50 17 27 - - 0.0
15/05:30am 2.9 -4.8 0.0 81 1.2 W 30 46 16 25 - - 0.0

Latest Capital City Observations: Canberra | Sydney | Melbourne | Brisbane | Adelaide | Perth | Hobart | Darwin

Other Formats:

Comma delimited format used in spreadsheet applications
http://www.bom.gov.au/fwo/IDN60903/IDN60903.94915.axf

JavaScript Object Notation format (JSON) in row-major order
http://www.bom.gov.au/fwo/IDN60903/IDN60903.94915.json